Time;durP1;ratioP1;P1;durP2;ratioP2;P2;SDS_P1;SDS_P2;PMS_P1;PMS_P2;Temp;Humidity;BMP_temperature;BMP_pressure;BME280_temperature;BME280_humidity;BME280_pressure;Samples;Min_cycle;Max_cycle;Signal;HPM_P1;HPM_P2
2021/01/20 00:01:59;;;;;;;138.55;75.45;;;5.60;68.90;;;;;;5074242;28;20024;-53
2021/01/20 00:04:24;;;;;;;107.72;67.32;;;5.50;69.30;;;;;;5022371;28;20480;-53
2021/01/20 00:06:50;;;;;;;51.35;30.52;;;5.10;71.00;;;;;;5073790;28;20472;-53
2021/01/20 00:09:17;;;;;;;35.58;17.33;;;5.30;71.50;;;;;;5074368;28;20082;-53
2021/01/20 00:11:43;;;;;;;23.58;12.18;;;5.40;70.70;;;;;;5074000;28;20032;-53
2021/01/20 00:14:16;;;;;;;14.32;8.57;;;5.50;70.10;;;;;;5073805;28;20040;-53
2021/01/20 00:16:42;;;;;;;8.63;5.65;;;5.60;69.70;;;;;;5073900;28;20039;-53
2021/01/20 00:19:10;;;;;;;8.32;5.65;;;5.80;69.30;;;;;;5074244;28;20032;-53
2021/01/20 00:21:36;;;;;;;8.18;4.63;;;5.90;69.30;;;;;;5073674;28;20067;-53
2021/01/20 00:24:03;;;;;;;6.82;4.30;;;6.00;69.20;;;;;;5073954;28;20128;-53
2021/01/20 00:26:29;;;;;;;7.80;4.97;;;6.00;68.70;;;;;;5073927;28;20094;-53
2021/01/20 00:28:54;;;;;;;5.28;3.75;;;6.10;68.70;;;;;;5073948;28;20025;-53
2021/01/20 00:31:20;;;;;;;11.23;7.90;;;6.30;67.90;;;;;;5073728;28;20063;-53
2021/01/20 00:33:46;;;;;;;24.90;16.48;;;6.30;68.10;;;;;;5073667;28;20041;-53
2021/01/20 00:36:13;;;;;;;16.63;9.98;;;6.40;67.90;;;;;;5038388;28;20071;-53
2021/01/20 00:38:39;;;;;;;13.82;8.82;;;6.50;67.40;;;;;;5073608;28;20028;-53
2021/01/20 00:41:04;;;;;;;18.63;12.88;;;6.50;67.30;;;;;;5055397;28;20047;-53
2021/01/20 00:43:30;;;;;;;19.10;13.48;;;6.60;67.10;;;;;;5073410;28;20028;-53
2021/01/20 00:45:59;;;;;;;24.23;16.10;;;6.60;67.60;;;;;;5073231;28;20125;-53
2021/01/20 00:48:25;;;;;;;21.23;13.93;;;6.60;67.40;;;;;;5072953;28;20031;-53
2021/01/20 00:50:55;;;;;;;19.17;12.20;;;6.70;67.90;;;;;;5073315;28;20404;-53
2021/01/20 00:53:21;;;;;;;17.50;11.52;;;6.70;67.70;;;;;;5073151;28;20155;-53
2021/01/20 00:55:47;;;;;;;20.13;11.35;;;6.60;67.90;;;;;;5073636;28;20429;-53
2021/01/20 00:58:13;;;;;;;20.38;12.43;;;6.60;67.40;;;;;;5073262;28;20039;-53
2021/01/20 01:00:39;;;;;;;25.85;15.82;;;6.60;67.30;;;;;;5073435;28;20099;-53
2021/01/20 01:03:04;;;;;;;34.15;18.35;;;6.50;67.10;;;;;;5073221;28;20115;-53
2021/01/20 01:05:30;;;;;;;29.20;16.45;;;6.50;67.30;;;;;;5038031;28;20044;-53
2021/01/20 01:07:56;;;;;;;29.73;15.60;;;6.50;67.50;;;;;;5073143;28;20123;-53
2021/01/20 01:10:22;;;;;;;42.60;22.02;;;6.50;67.10;;;;;;5073078;28;20039;-53
2021/01/20 01:12:47;;;;;;;14.10;9.57;;;6.20;95.20;;;;;;5073151;28;20048;-53
2021/01/20 01:15:13;;;;;;;12.43;8.85;;;6.40;67.00;;;;;;5073285;28;20087;-53
2021/01/20 01:17:39;;;;;;;16.05;9.73;;;6.30;67.00;;;;;;5073156;28;20029;-53
2021/01/20 01:20:06;;;;;;;13.55;9.48;;;6.40;67.10;;;;;;5073048;28;20036;-53
2021/01/20 01:22:31;;;;;;;11.10;7.50;;;6.40;67.30;;;;;;5073129;28;20119;-54
2021/01/20 01:24:57;;;;;;;13.93;8.65;;;6.40;67.20;;;;;;5073061;28;20503;-53
2021/01/20 01:27:23;;;;;;;13.20;8.98;;;6.40;66.80;;;;;;5054391;28;20047;-53
2021/01/20 01:29:48;;;;;;;10.65;8.45;;;6.40;66.80;;;;;;5072930;28;20503;-53
2021/01/20 01:32:14;;;;;;;10.77;6.90;;;6.40;67.10;;;;;;5072900;28;20047;-53
2021/01/20 01:34:40;;;;;;;6.95;5.13;;;6.40;67.10;;;;;;5072973;28;20029;-53
2021/01/20 01:37:06;;;;;;;8.30;5.70;;;6.50;66.20;;;;;;5072913;28;20079;-53
2021/01/20 01:39:33;;;;;;;7.57;5.78;;;6.50;66.60;;;;;;5072989;28;20043;-53
2021/01/20 01:42:00;;;;;;;6.72;4.95;;;6.50;66.50;;;;;;5072737;28;20112;-54
2021/01/20 01:44:25;;;;;;;5.00;3.92;;;6.50;66.20;;;;;;5072900;28;20111;-53
2021/01/20 01:46:51;;;;;;;5.32;4.10;;;6.60;66.20;;;;;;5073015;28;20060;-53
2021/01/20 01:49:17;;;;;;;7.00;4.30;;;6.60;66.10;;;;;;5037638;28;20063;-53
2021/01/20 01:51:43;;;;;;;5.47;4.07;;;6.60;66.00;;;;;;5072802;28;20033;-53
2021/01/20 01:54:09;;;;;;;6.40;4.10;;;6.60;66.40;;;;;;5072783;28;20534;-53
2021/01/20 01:56:35;;;;;;;5.70;4.10;;;6.60;66.40;;;;;;5054294;28;20346;-53
2021/01/20 01:59:01;;;;;;;5.47;3.53;;;6.60;66.60;;;;;;5037623;28;20082;-53
2021/01/20 02:01:27;;;;;;;7.22;4.75;;;6.60;67.00;;;;;;5075261;28;20078;-53
2021/01/20 02:03:53;;;;;;;5.43;3.70;;;6.30;67.10;;;;;;5076182;28;20028;-53
2021/01/20 02:06:19;;;;;;;5.65;4.07;;;6.40;67.40;;;;;;5076491;28;20036;-53
2021/01/20 02:08:47;;;;;;;8.68;5.93;;;6.40;67.10;;;;;;5076321;28;20475;-53
2021/01/20 02:11:22;;;;;;;8.15;4.95;;;6.50;67.00;;;;;;5057992;28;20038;-53
2021/01/20 02:14:06;;;;;;;10.00;7.13;;;6.50;67.00;;;;;;5075978;28;20055;-53
2021/01/20 02:16:35;;;;;;;8.05;5.68;;;6.50;67.50;;;;;;5076077;28;20037;-53
2021/01/20 02:19:09;;;;;;;6.63;4.90;;;6.50;67.40;;;;;;5075931;28;20060;-53
2021/01/20 02:22:07;;;;;;;4.40;3.47;;;6.50;67.30;;;;;;5076254;28;20032;-53
2021/01/20 02:24:57;;;;;;;5.40;3.97;;;6.50;66.80;;;;;;4975262;28;20030;-53
2021/01/20 02:27:39;;;;;;;4.93;3.85;;;6.60;66.70;;;;;;4974846;28;20070;-53
2021/01/20 02:30:10;;;;;;;7.05;5.68;;;6.60;67.10;;;;;;4974858;28;20038;-53
2021/01/20 02:32:38;;;;;;;4.90;4.25;;;6.60;67.40;;;;;;4926765;28;20050;-53
2021/01/20 02:35:05;;;;;;;7.13;5.32;;;6.60;67.10;;;;;;4942642;28;20074;-53
2021/01/20 02:37:33;;;;;;;4.85;3.90;;;6.70;67.40;;;;;;4958669;28;20063;-53
2021/01/20 02:39:59;;;;;;;5.47;3.50;;;6.60;68.00;;;;;;4974638;28;20143;-53
2021/01/20 02:42:26;;;;;;;3.80;3.22;;;6.70;67.60;;;;;;4958436;28;20047;-53
2021/01/20 02:44:51;;;;;;;5.60;3.15;;;6.60;67.50;;;;;;4974879;28;20438;-53
2021/01/20 02:47:17;;;;;;;4.80;3.22;;;6.70;68.30;;;;;;4974578;28;20050;-53
2021/01/20 02:49:44;;;;;;;5.30;2.92;;;6.60;68.60;;;;;;4974754;28;20098;-53
2021/01/20 02:52:15;;;;;;;4.20;3.20;;;6.70;68.30;;;;;;4974362;28;20034;-53
2021/01/20 02:54:41;;;;;;;4.37;2.70;;;6.70;68.40;;;;;;4974813;28;20146;-53
2021/01/20 02:57:08;;;;;;;5.00;3.30;;;6.70;67.70;;;;;;4974632;28;20041;-53
2021/01/20 02:59:37;;;;;;;4.97;2.80;;;6.80;68.10;;;;;;5001172;28;20511;-53
2021/01/20 03:02:13;;;;;;;3.97;3.00;;;6.70;68.70;;;;;;5075379;28;20032;-53
2021/01/20 03:04:45;;;;;;;5.55;3.67;;;6.80;68.70;;;;;;5075407;28;20185;-53
2021/01/20 03:07:12;;;;;;;5.07;3.30;;;6.80;68.70;;;;;;5075034;28;20119;-53
2021/01/20 03:09:38;;;;;;;5.53;3.33;;;6.80;68.70;;;;;;5075424;28;20125;-53
2021/01/20 03:12:05;;;;;;;8.10;4.55;;;6.90;68.60;;;;;;5055906;28;20054;-53
2021/01/20 03:14:32;;;;;;;10.13;6.15;;;6.90;68.50;;;;;;5023210;28;20131;-53
2021/01/20 03:16:58;;;;;;;8.63;4.90;;;6.90;68.40;;;;;;5039743;28;20402;-53
2021/01/20 03:19:24;;;;;;;3.38;2.55;;;6.90;68.10;;;;;;5039673;28;20430;-53
2021/01/20 03:21:50;;;;;;;10.50;5.47;;;7.00;69.00;;;;;;5039764;28;20049;-53
2021/01/20 03:24:15;;;;;;;22.55;9.02;;;7.00;68.20;;;;;;5075298;28;20040;-53
2021/01/20 03:26:41;;;;;;;13.18;6.15;;;7.00;67.70;;;;;;5074516;28;20082;-53
2021/01/20 03:29:07;;;;;;;7.68;4.00;;;7.20;75.30;;;;;;5074696;28;20657;-53
2021/01/20 03:31:33;;;;;;;5.88;3.55;;;7.10;76.70;;;;;;5074476;28;20079;-53
2021/01/20 03:34:00;;;;;;;12.15;6.03;;;7.20;76.90;;;;;;5074527;28;20369;-53
2021/01/20 03:36:26;;;;;;;14.45;7.22;;;7.20;78.40;;;;;;5074528;28;20024;-53
2021/01/20 03:38:52;;;;;;;6.30;3.47;;;7.10;74.60;;;;;;5074663;28;20044;-53
2021/01/20 03:41:18;;;;;;;7.40;4.00;;;7.20;78.00;;;;;;5074558;28;20037;-53
2021/01/20 03:43:44;;;;;;;4.18;2.95;;;7.20;78.60;;;;;;5074497;28;20465;-53
2021/01/20 03:46:09;;;;;;;6.00;3.78;;;7.20;79.10;;;;;;5074361;28;20086;-53
2021/01/20 03:48:35;;;;;;;5.07;3.28;;;7.20;80.40;;;;;;5074437;28;20035;-53
2021/01/20 03:51:01;;;;;;;5.85;4.30;;;7.20;73.20;;;;;;5074335;28;20480;-53
2021/01/20 03:53:27;;;;;;;5.00;2.97;;;7.10;69.10;;;;;;4998817;28;20045;-53
2021/01/20 03:55:52;;;;;;;5.78;2.50;;;7.10;69.40;;;;;;5032281;28;20500;-54
2021/01/20 03:58:18;;;;;;;3.67;2.63;;;7.10;69.80;;;;;;5032366;28;20037;-53
2021/01/20 04:00:44;;;;;;;6.63;3.33;;;7.10;69.60;;;;;;5032128;28;20026;-53
2021/01/20 04:03:09;;;;;;;7.32;4.90;;;7.30;72.70;;;;;;5031839;28;20064;-53
2021/01/20 04:05:35;;;;;;;7.95;4.30;;;7.10;69.20;;;;;;5032056;28;20087;-53
2021/01/20 04:08:01;;;;;;;7.80;4.10;;;7.20;68.40;;;;;;5031988;28;20041;-53
2021/01/20 04:10:27;;;;;;;5.43;4.10;;;7.20;68.00;;;;;;5032123;28;20076;-53
2021/01/20 04:12:53;;;;;;;4.30;2.95;;;7.10;68.70;;;;;;4982745;28;20123;-53
2021/01/20 04:15:19;;;;;;;3.47;2.90;;;6.90;69.70;;;;;;5032352;28;20037;-53
2021/01/20 04:17:45;;;;;;;4.28;2.60;;;7.00;69.70;;;;;;5031615;28;20480;-53
2021/01/20 04:20:11;;;;;;;5.43;3.63;;;6.80;89.60;;;;;;4999166;28;20037;-53
2021/01/20 04:22:37;;;;;;;7.10;4.15;;;6.90;70.30;;;;;;4982080;28;20389;-53
2021/01/20 04:25:04;;;;;;;7.05;3.97;;;6.90;69.80;;;;;;5063370;28;20403;-53
2021/01/20 04:27:29;;;;;;;5.72;3.50;;;6.90;69.70;;;;;;5074062;28;20029;-53
2021/01/20 04:29:55;;;;;;;6.43;3.50;;;6.80;69.90;;;;;;5073741;28;20025;-60
2021/01/20 04:32:21;;;;;;;6.45;4.40;;;6.90;70.20;;;;;;5038384;28;20044;-53
2021/01/20 04:34:47;;;;;;;6.05;4.60;;;7.00;69.80;;;;;;5073743;28;20537;-53
2021/01/20 04:37:13;;;;;;;6.43;4.00;;;7.20;69.10;;;;;;5038300;28;20077;-53
2021/01/20 04:39:38;;;;;;;6.00;4.25;;;7.20;69.00;;;;;;5073500;28;20028;-53
2021/01/20 04:42:05;;;;;;;6.90;4.40;;;;;;;;;;5073670;28;20028;-53
2021/01/20 04:44:31;;;;;;;9.52;5.03;;;7.10;68.60;;;;;;5073735;28;20365;-53
2021/01/20 04:46:57;;;;;;;6.43;5.03;;;7.00;70.30;;;;;;5073464;28;20082;-53
2021/01/20 04:49:26;;;;;;;8.55;5.88;;;6.80;71.10;;;;;;5073807;28;20060;-53
2021/01/20 04:51:53;;;;;;;6.53;4.72;;;6.80;71.50;;;;;;5073781;28;20021;-53
2021/01/20 04:54:21;;;;;;;7.18;5.13;;;6.80;71.60;;;;;;5073548;28;20029;-53
2021/01/20 04:56:47;;;;;;;9.15;5.70;;;7.00;71.30;;;;;;5073281;28;20078;-53
2021/01/20 04:59:14;;;;;;;6.70;4.60;;;7.10;71.00;;;;;;5073621;28;20024;-53
2021/01/20 05:01:40;;;;;;;9.85;5.90;;;7.00;71.40;;;;;;5073459;28;20411;-53
2021/01/20 05:04:09;;;;;;;16.95;11.07;;;7.10;70.60;;;;;;5073552;28;20028;-53
2021/01/20 05:06:35;;;;;;;34.63;18.90;;;7.30;70.20;;;;;;5073350;28;20024;-53
2021/01/20 05:09:01;;;;;;;63.05;33.55;;;7.40;70.10;;;;;;5073117;28;20364;-53
2021/01/20 05:11:44;;;;;;;38.67;20.42;;;7.60;72.10;;;;;;4988868;28;20036;-53
2021/01/20 05:14:14;;;;;;;18.58;11.65;;;7.40;69.60;;;;;;5073301;28;20039;-53
2021/01/20 05:16:42;;;;;;;21.60;12.63;;;7.60;69.30;;;;;;5073207;28;20029;-53
2021/01/20 05:19:08;;;;;;;38.22;22.10;;;7.60;68.80;;;;;;5070294;28;20029;-53
2021/01/20 05:21:34;;;;;;;33.03;18.65;;;7.70;68.70;;;;;;5073473;28;20466;-54
2021/01/20 05:24:20;;;;;;;40.00;22.95;;;7.80;68.50;;;;;;5073161;28;20111;-54
2021/01/20 05:26:47;;;;;;;35.65;19.42;;;7.80;68.50;;;;;;5037833;28;20115;-54
2021/01/20 05:29:13;;;;;;;28.38;15.20;;;7.60;69.40;;;;;;5073326;28;20111;-53
2021/01/20 05:31:40;;;;;;;16.73;10.07;;;7.70;69.50;;;;;;5073044;28;20060;-54
2021/01/20 05:34:28;;;;;;;19.17;10.85;;;7.70;69.70;;;;;;5073638;28;20132;-53
2021/01/20 05:37:02;;;;;;;16.73;9.32;;;7.70;69.70;;;;;;5076750;28;20029;-54
2021/01/20 05:39:28;;;;;;;28.75;16.23;;;7.70;69.60;;;;;;5076694;28;20043;-54
2021/01/20 05:42:03;;;;;;;21.58;12.02;;;7.70;69.50;;;;;;5076766;28;20020;-54
2021/01/20 05:44:29;;;;;;;24.77;13.90;;;7.70;70.30;;;;;;5076910;28;20033;-54
2021/01/20 05:46:55;;;;;;;10.07;7.03;;;7.60;70.70;;;;;;5076444;28;20051;-53
2021/01/20 05:49:25;;;;;;;14.70;9.38;;;7.50;71.40;;;;;;5076844;28;20168;-54
2021/01/20 05:51:52;;;;;;;13.23;8.63;;;7.50;70.90;;;;;;5025381;28;20044;-54
2021/01/20 05:54:37;;;;;;;9.38;6.20;;;7.40;71.20;;;;;;5073278;28;20158;-54
2021/01/20 05:57:16;;;;;;;9.48;6.18;;;7.30;71.30;;;;;;5076429;28;20028;-54
2021/01/20 05:59:43;;;;;;;30.50;20.08;;;7.40;71.20;;;;;;5076738;28;20020;-53
2021/01/20 06:02:10;;;;;;;59.95;36.58;;;7.30;83.20;;;;;;5076132;28;20032;-54
2021/01/20 06:04:37;;;;;;;61.72;36.28;;;7.40;82.20;;;;;;5076228;28;20388;-54
2021/01/20 06:07:05;;;;;;;56.35;34.53;;;7.50;81.20;;;;;;5076269;28;20025;-54
2021/01/20 06:09:33;;;;;;;57.97;34.20;;;7.50;79.20;;;;;;5040939;28;20045;-53
2021/01/20 06:11:59;;;;;;;59.38;35.67;;;7.60;78.50;;;;;;5076188;28;20103;-53
2021/01/20 06:14:25;;;;;;;61.67;38.17;;;7.50;78.00;;;;;;5076488;28;20045;-55
2021/01/20 06:17:00;;;;;;;51.67;35.13;;;7.50;75.70;;;;;;5076334;28;20025;-54
2021/01/20 06:19:27;;;;;;;47.85;33.55;;;7.60;75.40;;;;;;5076183;28;20622;-53
2021/01/20 06:21:56;;;;;;;48.55;33.17;;;7.60;75.00;;;;;;5076051;28;20036;-54
2021/01/20 06:24:39;;;;;;;54.22;34.10;;;7.70;73.70;;;;;;5075735;28;20103;-53
2021/01/20 06:27:22;;;;;;;48.13;32.42;;;7.60;70.50;;;;;;5040276;28;20037;-54
2021/01/20 06:30:01;;;;;;;46.65;31.73;;;7.70;75.20;;;;;;5013925;28;20045;-53
2021/01/20 06:32:28;;;;;;;55.42;38.67;;;7.70;70.90;;;;;;5014065;28;20551;-54
2021/01/20 06:34:55;;;;;;;57.33;37.38;;;7.50;70.00;;;;;;5014113;28;20099;-54
2021/01/20 06:37:37;;;;;;;38.40;24.63;;;7.60;69.60;;;;;;4964793;28;20074;-53
2021/01/20 06:40:23;;;;;;;41.73;29.07;;;7.60;69.70;;;;;;4997501;28;20045;-54
2021/01/20 06:42:50;;;;;;;61.45;39.42;;;7.40;69.40;;;;;;5013528;28;20272;-54
2021/01/20 06:45:21;;;;;;;66.10;43.40;;;7.60;72.90;;;;;;5013474;28;20494;-54
2021/01/20 06:47:59;;;;;;;72.53;47.73;;;7.20;70.30;;;;;;5013354;28;20378;-54
2021/01/20 06:50:32;;;;;;;69.18;46.30;;;7.20;71.10;;;;;;4964672;28;20479;-54
2021/01/20 06:53:05;;;;;;;71.25;44.60;;;7.40;70.70;;;;;;5013527;28;20042;-54
2021/01/20 06:55:31;;;;;;;73.28;45.63;;;7.50;70.50;;;;;;5014114;28;20045;-53
2021/01/20 06:58:16;;;;;;;62.20;40.47;;;7.20;70.20;;;;;;5022987;28;20026;-54
2021/01/20 07:00:41;;;;;;;65.15;43.00;;;6.80;71.70;;;;;;4995397;28;20039;-53
2021/01/20 07:03:07;;;;;;;78.72;48.85;;;6.90;72.00;;;;;;5075036;28;20025;-54
2021/01/20 07:05:38;;;;;;;83.95;55.13;;;6.90;71.60;;;;;;5075233;28;20369;-53
2021/01/20 07:08:06;;;;;;;71.95;47.08;;;6.90;73.20;;;;;;5075122;28;20048;-53
2021/01/20 07:10:57;;;;;;;55.58;37.67;;;6.70;73.80;;;;;;5039823;28;20036;-54
2021/01/20 07:13:34;;;;;;;45.05;31.25;;;6.90;73.10;;;;;;5074597;28;20039;-55
2021/01/20 07:16:01;;;;;;;38.17;27.83;;;7.10;72.60;;;;;;5074888;28;20036;-52
2021/01/20 07:18:27;;;;;;;40.95;30.75;;;7.10;72.60;;;;;;5022999;28;20505;-54
2021/01/20 07:20:53;;;;;;;30.25;22.17;;;6.90;73.20;;;;;;5074952;28;20099;-54
2021/01/20 07:23:19;;;;;;;33.53;22.40;;;7.20;72.30;;;;;;5039390;28;20539;-50
2021/01/20 07:25:47;;;;;;;35.83;24.02;;;6.90;73.30;;;;;;5074748;28;20037;-52
2021/01/20 07:28:13;;;;;;;29.75;19.65;;;7.10;73.80;;;;;;5074597;28;20024;-55
2021/01/20 07:30:39;;;;;;;20.00;13.23;;;7.50;75.10;;;;;;5074530;28;20226;-52
2021/01/20 07:33:21;;;;;;;23.50;16.95;;;7.20;71.80;;;;;;5076797;28;20039;-52
2021/01/20 07:35:48;;;;;;;28.52;21.95;;;7.20;89.70;;;;;;5084185;28;20031;-52
2021/01/20 07:38:14;;;;;;;24.27;16.05;;;7.50;88.70;;;;;;5046867;28;20029;-52
2021/01/20 07:40:42;;;;;;;24.63;17.88;;;7.20;87.70;;;;;;5084357;28;20464;-51
2021/01/20 07:43:18;;;;;;;24.52;18.27;;;7.30;89.10;;;;;;5084266;28;20054;-53
2021/01/20 07:45:44;;;;;;;25.75;18.98;;;7.50;73.00;;;;;;5084093;28;20369;-51
2021/01/20 07:48:10;;;;;;;31.58;22.88;;;7.80;72.70;;;;;;5047134;28;20032;-53
2021/01/20 07:50:38;;;;;;;37.95;29.33;;;8.00;72.60;;;;;;5036371;28;20032;-52
2021/01/20 07:53:04;;;;;;;32.90;27.15;;;8.10;71.00;;;;;;5047482;28;20487;-53
2021/01/20 07:55:31;;;;;;;33.88;27.05;;;8.00;70.60;;;;;;5087396;28;20028;-52
2021/01/20 07:57:59;;;;;;;36.33;28.08;;;;;;;;;;5094529;28;20024;-52
2021/01/20 08:00:26;;;;;;;35.13;29.27;;;8.30;71.40;;;;;;5094049;28;20111;-52
2021/01/20 08:02:51;;;;;;;18.55;15.38;;;8.30;70.30;;;;;;5091968;28;20024;-52
2021/01/20 08:05:17;;;;;;;22.83;18.55;;;8.30;68.90;;;;;;5094197;28;20024;-51
2021/01/20 08:07:43;;;;;;;34.60;28.70;;;8.50;69.70;;;;;;5094116;28;20035;-52
2021/01/20 08:10:20;;;;;;;88.28;63.80;;;;;;;;;;5094356;28;20020;-52
2021/01/20 08:12:50;;;;;;;58.40;45.53;;;8.60;69.10;;;;;;5094203;28;20036;-52
2021/01/20 08:15:17;;;;;;;69.93;56.25;;;8.70;70.20;;;;;;5094216;28;20032;-52
2021/01/20 08:17:44;;;;;;;72.72;57.00;;;8.90;71.00;;;;;;5042548;28;20047;-52
2021/01/20 08:20:11;;;;;;;55.08;46.20;;;9.10;69.00;;;;;;5094162;28;20024;-52
2021/01/20 08:22:47;;;;;;;46.08;37.05;;;9.30;68.60;;;;;;5025528;28;20031;-52
2021/01/20 08:25:21;;;;;;;23.52;19.17;;;9.30;68.20;;;;;;5094129;28;20341;-52
2021/01/20 08:27:48;;;;;;;23.42;16.80;;;9.40;67.10;;;;;;5093826;28;20093;-52
2021/01/20 08:30:31;;;;;;;22.23;17.73;;;9.60;67.10;;;;;;5093813;28;20484;-52
2021/01/20 08:32:58;;;;;;;19.10;16.05;;;9.60;67.90;;;;;;5093845;28;20491;-54
2021/01/20 08:35:50;;;;;;;17.98;13.05;;;9.70;66.90;;;;;;5094109;28;20020;-52
2021/01/20 08:38:27;;;;;;;16.02;12.50;;;;;;;;;;5092147;28;20059;-53
2021/01/20 08:41:12;;;;;;;31.38;18.63;;;10.30;73.30;;;;;;5093785;28;20543;-53
2021/01/20 08:43:38;;;;;;;50.92;30.70;;;10.10;66.00;;;;;;5057970;28;20119;-52
2021/01/20 08:46:26;;;;;;;37.25;25.85;;;10.20;64.50;;;;;;5093927;28;20099;-52
2021/01/20 08:48:57;;;;;;;42.10;25.75;;;10.30;65.20;;;;;;5093766;28;20024;-52
2021/01/20 08:51:23;;;;;;;32.10;22.92;;;10.40;65.40;;;;;;5090812;28;20060;-52
2021/01/20 08:53:48;;;;;;;38.75;27.90;;;10.40;66.70;;;;;;5057898;28;20083;-52
2021/01/20 08:56:25;;;;;;;37.35;27.92;;;10.40;65.50;;;;;;5058410;28;20086;-52
2021/01/20 08:58:54;;;;;;;30.60;24.45;;;10.50;64.70;;;;;;5093422;28;20571;-52
2021/01/20 09:01:26;;;;;;;38.70;30.27;;;10.60;64.20;;;;;;5075055;28;20036;-52
2021/01/20 09:04:00;;;;;;;34.95;27.75;;;;;;;;;;5093777;28;20034;-52
2021/01/20 09:06:26;;;;;;;37.45;27.73;;;10.70;91.30;;;;;;5093620;28;20028;-52
2021/01/20 09:08:56;;;;;;;30.65;24.42;;;10.50;64.80;;;;;;5014613;28;20037;-53
2021/01/20 09:11:23;;;;;;;30.30;24.95;;;10.60;63.90;;;;;;5035330;28;20478;-53
2021/01/20 09:13:54;;;;;;;28.98;23.35;;;10.60;63.20;;;;;;5035137;28;20521;-52
2021/01/20 09:16:27;;;;;;;42.92;32.38;;;10.60;63.60;;;;;;5035438;28;20037;-52
2021/01/20 09:18:53;;;;;;;25.33;19.50;;;10.50;61.90;;;;;;5035180;28;20061;-52
2021/01/20 09:21:19;;;;;;;22.38;18.25;;;10.20;63.80;;;;;;5034874;28;20044;-53
2021/01/20 09:23:45;;;;;;;19.67;14.40;;;10.30;63.80;;;;;;5034992;28;20160;-52
2021/01/20 09:26:11;;;;;;;30.20;22.05;;;10.20;63.60;;;;;;5035050;28;20022;-52
2021/01/20 09:28:37;;;;;;;47.90;33.28;;;10.30;63.30;;;;;;5034477;28;20072;-54
2021/01/20 09:31:03;;;;;;;47.80;32.13;;;10.40;62.20;;;;;;5034863;28;20073;-52
2021/01/20 09:33:29;;;;;;;36.67;27.83;;;10.40;62.90;;;;;;5034308;28;20481;-52
2021/01/20 09:35:54;;;;;;;31.27;22.58;;;10.50;63.60;;;;;;5023851;28;20100;-52
2021/01/20 09:38:21;;;;;;;30.85;22.23;;;10.40;62.10;;;;;;5024889;28;20044;-52
2021/01/20 09:40:47;;;;;;;39.40;27.42;;;10.60;62.50;;;;;;5059166;28;20047;-52
2021/01/20 09:43:13;;;;;;;35.88;25.50;;;10.40;61.80;;;;;;5096917;28;20466;-52
2021/01/20 09:45:39;;;;;;;110.05;65.43;;;10.50;63.00;;;;;;5052792;28;20132;-52
2021/01/20 09:48:08;;;;;;;61.50;38.17;;;10.70;62.70;;;;;;5077255;28;20031;-52
2021/01/20 09:50:34;;;;;;;78.60;51.38;;;10.80;63.10;;;;;;5076669;28;20368;-52
2021/01/20 09:53:06;;;;;;;80.20;52.38;;;10.90;63.50;;;;;;5076400;28;20036;-52
2021/01/20 09:55:32;;;;;;;84.70;55.20;;;11.20;63.00;;;;;;5041216;28;20040;-52
2021/01/20 09:58:02;;;;;;;146.18;79.43;;;11.30;62.50;;;;;;5076540;28;20111;-52
2021/01/20 10:00:28;;;;;;;118.97;65.60;;;11.50;62.70;;;;;;5076595;28;20025;-53
2021/01/20 10:02:54;;;;;;;206.82;96.90;;;11.70;62.10;;;;;;5076594;28;20094;-52
2021/01/20 10:05:20;;;;;;;252.27;112.72;;;;;;;;;;5076138;28;20028;-52
2021/01/20 10:07:46;;;;;;;121.28;66.60;;;12.10;88.90;;;;;;5076431;28;20099;-51
2021/01/20 10:10:13;;;;;;;98.75;62.08;;;;;;;;;;5075788;28;20052;-52
2021/01/20 10:12:39;;;;;;;106.40;63.47;;;12.50;90.40;;;;;;5091428;28;20036;-52
2021/01/20 10:15:07;;;;;;;132.48;77.05;;;12.70;62.30;;;;;;5093910;28;20386;-51
2021/01/20 10:17:33;;;;;;;86.60;58.38;;;12.70;61.30;;;;;;5075491;28;20023;-53
2021/01/20 10:19:58;;;;;;;75.05;56.15;;;12.40;59.20;;;;;;5082669;28;20031;-54
2021/01/20 10:22:24;;;;;;;382.02;242.27;;;12.20;60.30;;;;;;5079995;28;20029;-54
2021/01/20 10:24:50;;;;;;;332.35;204.63;;;11.80;61.40;;;;;;5075761;28;20070;-51
2021/01/20 10:27:16;;;;;;;179.85;111.25;;;11.70;61.50;;;;;;5075550;28;20036;-49
2021/01/20 10:29:42;;;;;;;54.33;34.38;;;11.50;61.40;;;;;;5075722;28;20456;-51
2021/01/20 10:32:09;;;;;;;40.30;30.38;;;11.20;61.10;;;;;;5039947;28;20057;-52
2021/01/20 10:34:35;;;;;;;36.03;28.42;;;11.10;63.00;;;;;;5091655;28;20495;-53
2021/01/20 10:37:00;;;;;;;37.33;28.63;;;10.80;62.00;;;;;;5077046;28;20034;-51
2021/01/20 10:39:26;;;;;;;46.05;34.40;;;10.60;63.80;;;;;;5007545;28;20036;-54
2021/01/20 10:41:52;;;;;;;44.10;35.00;;;10.70;65.20;;;;;;5039912;28;20110;-51
2021/01/20 10:44:18;;;;;;;45.20;34.75;;;10.80;65.70;;;;;;5023748;28;20365;-51
2021/01/20 10:46:44;;;;;;;50.60;36.83;;;10.80;65.70;;;;;;5075376;28;20105;-52
2021/01/20 10:49:10;;;;;;;58.53;41.15;;;10.60;66.70;;;;;;5075240;28;20078;-53
2021/01/20 10:51:35;;;;;;;60.83;41.80;;;10.50;67.80;;;;;;5075424;28;20071;-52
2021/01/20 10:54:03;;;;;;;56.42;40.63;;;10.50;68.60;;;;;;5075264;28;20427;-54
2021/01/20 10:56:29;;;;;;;46.20;33.53;;;10.50;68.80;;;;;;5074746;28;20047;-51
2021/01/20 10:58:55;;;;;;;46.05;35.17;;;10.50;69.00;;;;;;5075014;28;20021;-52
2021/01/20 11:01:21;;;;;;;31.17;24.67;;;11.00;69.30;;;;;;5023309;28;20040;-51
2021/01/20 11:03:47;;;;;;;36.60;26.50;;;11.40;66.80;;;;;;5039861;28;20119;-53
2021/01/20 11:06:13;;;;;;;37.75;25.77;;;11.70;65.90;;;;;;5074954;28;20048;-53
2021/01/20 11:08:39;;;;;;;30.70;22.40;;;12.00;66.10;;;;;;5075145;28;20488;-51
2021/01/20 11:11:06;;;;;;;34.65;25.38;;;12.30;64.80;;;;;;5039470;28;20032;-53
2021/01/20 11:13:33;;;;;;;44.60;33.67;;;12.60;63.90;;;;;;5075014;28;20376;-53
2021/01/20 11:15:59;;;;;;;55.35;39.33;;;13.00;65.30;;;;;;5074749;28;20077;-52
2021/01/20 11:18:25;;;;;;;54.42;37.22;;;13.20;64.60;;;;;;5074574;28;20435;-52
2021/01/20 11:20:51;;;;;;;39.28;21.17;;;13.50;63.00;;;;;;5074656;28;20029;-54
2021/01/20 11:23:20;;;;;;;42.65;19.15;;;13.90;60.70;;;;;;5074718;28;20027;-54
2021/01/20 11:25:46;;;;;;;10.30;5.53;;;14.30;60.70;;;;;;5074580;28;20032;-54
2021/01/20 11:28:13;;;;;;;18.33;5.18;;;14.60;60.00;;;;;;5074324;28;20035;-53
2021/01/20 11:30:39;;;;;;;15.15;3.78;;;14.80;59.00;;;;;;5074403;28;20054;-55
2021/01/20 11:33:06;;;;;;;12.57;6.72;;;15.10;55.80;;;;;;5038616;28;20058;-53
2021/01/20 11:35:32;;;;;;;7.72;7.13;;;15.60;55.50;;;;;;5039397;28;20534;-54
2021/01/20 11:37:58;;;;;;;16.33;14.77;;;16.40;54.10;;;;;;5074321;28;20020;-55
2021/01/20 11:40:27;;;;;;;17.83;16.40;;;17.10;52.70;;;;;;5074254;28;20346;-53
2021/01/20 11:42:57;;;;;;;13.45;12.10;;;;;;;;;;5039087;28;20056;-55
2021/01/20 11:45:38;;;;;;;12.90;12.00;;;18.50;47.20;;;;;;5074207;28;20071;-53
2021/01/20 11:48:05;;;;;;;18.45;17.40;;;19.00;45.60;;;;;;5073988;28;20048;-52
2021/01/20 11:50:32;;;;;;;13.00;12.10;;;19.60;44.60;;;;;;5074007;28;20086;-51
2021/01/20 11:52:58;;;;;;;7.65;6.30;;;20.10;43.10;;;;;;5074154;28;20453;-51
2021/01/20 11:55:24;;;;;;;12.93;8.75;;;20.40;42.70;;;;;;5073800;28;20081;-50
2021/01/20 11:57:51;;;;;;;14.88;13.32;;;20.50;42.20;;;;;;5074230;28;20044;-53
2021/01/20 12:00:17;;;;;;;11.95;11.02;;;;;;;;;;5038747;28;20044;-50
2021/01/20 12:02:43;;;;;;;7.78;7.28;;;20.70;41.20;;;;;;5073860;28;20028;-52
2021/01/20 12:05:14;;;;;;;8.15;7.35;;;20.80;41.00;;;;;;5073904;28;20043;-51
2021/01/20 12:07:40;;;;;;;10.85;9.90;;;21.10;41.60;;;;;;5073891;28;20032;-53
2021/01/20 12:10:14;;;;;;;7.45;7.00;;;20.80;41.50;;;;;;5073920;28;20476;-53
2021/01/20 12:12:40;;;;;;;9.38;3.65;;;21.40;42.50;;;;;;5073744;28;20031;-51
2021/01/20 12:15:06;;;;;;;5.30;3.30;;;21.70;41.90;;;;;;5054930;28;20040;-51
2021/01/20 12:17:33;;;;;;;3.85;2.63;;;21.90;40.90;;;;;;5022235;28;20036;-52
2021/01/20 12:19:59;;;;;;;6.82;2.95;;;22.10;38.80;;;;;;5073626;28;20028;-52
2021/01/20 12:22:25;;;;;;;3.30;2.22;;;22.30;40.00;;;;;;5038140;28;20033;-52
2021/01/20 12:24:51;;;;;;;3.03;2.33;;;22.50;38.20;;;;;;5073627;28;20040;-51
2021/01/20 12:27:16;;;;;;;12.23;3.47;;;22.50;38.10;;;;;;5037945;28;20114;-51
2021/01/20 12:29:42;;;;;;;7.78;3.03;;;22.30;38.40;;;;;;5038436;28;20076;-53
2021/01/20 12:32:08;;;;;;;12.90;5.25;;;21.70;38.30;;;;;;5073375;28;20051;-51
2021/01/20 12:34:34;;;;;;;17.27;7.40;;;20.80;39.30;;;;;;5073288;28;20078;-54
2021/01/20 12:36:59;;;;;;;12.73;9.25;;;20.20;40.90;;;;;;5073503;28;20032;-52
2021/01/20 12:39:25;;;;;;;18.75;10.63;;;18.60;42.10;;;;;;5073525;28;20032;-53
2021/01/20 12:41:51;;;;;;;16.08;9.23;;;18.10;44.90;;;;;;5031342;28;20044;-54
2021/01/20 12:44:17;;;;;;;11.18;7.68;;;18.40;45.60;;;;;;5063431;28;20066;-51
2021/01/20 12:46:43;;;;;;;17.67;11.55;;;17.90;43.90;;;;;;5073390;28;20401;-52
2021/01/20 12:49:09;;;;;;;20.92;12.80;;;16.50;46.90;;;;;;5073178;28;20078;-54